createdAt,value
2019-01-15T00:02:08.540Z,1.30
2019-01-15T00:05:12.344Z,1.30
2019-01-15T00:08:15.786Z,1.30
2019-01-15T00:11:19.193Z,1.30
2019-01-15T00:14:22.641Z,1.20
2019-01-15T00:17:26.068Z,1.20
2019-01-15T00:20:29.509Z,1.20
2019-01-15T00:23:32.984Z,1.20
2019-01-15T00:26:36.437Z,1.30
2019-01-15T00:29:39.838Z,1.30
2019-01-15T00:32:43.272Z,1.40
2019-01-15T00:35:46.704Z,1.40
2019-01-15T00:38:50.144Z,1.50
2019-01-15T00:41:53.585Z,1.50
2019-01-15T00:44:57.020Z,1.40
2019-01-15T00:48:00.464Z,1.40
2019-01-15T00:51:03.875Z,1.40
2019-01-15T00:54:07.310Z,1.40
2019-01-15T00:57:10.740Z,1.30
2019-01-15T01:00:17.437Z,1.40
2019-01-15T01:03:20.920Z,1.30
2019-01-15T01:06:24.356Z,1.30
2019-01-15T01:09:27.768Z,1.20
2019-01-15T01:12:31.205Z,1.20
2019-01-15T01:15:34.689Z,1.20
2019-01-15T01:18:38.117Z,1.20
2019-01-15T01:21:41.537Z,1.10
2019-01-15T01:24:44.973Z,1.10
2019-01-15T01:27:48.384Z,1.00
2019-01-15T01:30:51.810Z,1.00
2019-01-15T01:33:55.216Z,1.00
2019-01-15T01:36:58.657Z,1.00
2019-01-15T01:40:02.110Z,1.00
2019-01-15T01:43:05.593Z,0.90
2019-01-15T01:46:09.024Z,0.90
2019-01-15T01:49:12.435Z,0.80
2019-01-15T01:52:15.873Z,0.80
2019-01-15T01:55:19.312Z,0.80
2019-01-15T01:58:22.801Z,0.90
2019-01-15T02:01:26.238Z,0.90
2019-01-15T02:04:29.653Z,0.90
2019-01-15T02:07:33.097Z,0.90
2019-01-15T02:10:36.524Z,0.90
2019-01-15T02:13:39.961Z,1.00
2019-01-15T02:16:43.377Z,1.10
2019-01-15T02:19:46.804Z,1.10
2019-01-15T02:22:50.582Z,1.10
2019-01-15T02:25:53.994Z,1.20
2019-01-15T02:28:57.443Z,1.20
2019-01-15T02:32:00.859Z,1.20
2019-01-15T02:35:05.329Z,1.20
2019-01-15T02:38:08.737Z,1.30
2019-01-15T02:41:12.177Z,1.20
2019-01-15T02:44:15.612Z,1.30
2019-01-15T02:47:19.038Z,1.40
2019-01-15T02:50:22.483Z,1.30
2019-01-15T02:53:25.884Z,1.30
2019-01-15T02:56:29.324Z,1.30
2019-01-15T02:59:32.737Z,1.40
2019-01-15T03:02:36.172Z,1.40
2019-01-15T03:05:39.597Z,1.40
2019-01-15T03:08:43.034Z,1.40
2019-01-15T03:11:46.492Z,1.40
2019-01-15T03:14:49.964Z,1.40
2019-01-15T03:17:53.727Z,1.40
2019-01-15T03:20:57.160Z,1.40
2019-01-15T03:24:00.593Z,1.40
2019-01-15T03:27:04.021Z,1.50
2019-01-15T03:30:19.644Z,1.50
2019-01-15T03:33:23.128Z,1.50
2019-01-15T03:36:26.668Z,1.60
2019-01-15T03:39:30.113Z,1.60
2019-01-15T03:42:33.554Z,1.60
2019-01-15T03:45:36.960Z,1.70
2019-01-15T03:48:40.402Z,1.60
2019-01-15T03:51:43.810Z,1.60
2019-01-15T03:54:47.248Z,1.60
2019-01-15T03:57:50.697Z,1.70
2019-01-15T04:00:54.131Z,1.70
2019-01-15T04:03:57.589Z,1.70
2019-01-15T04:07:01.248Z,1.70
2019-01-15T04:10:08.277Z,1.70
2019-01-15T04:13:11.729Z,1.70
2019-01-15T04:16:15.222Z,1.60
2019-01-15T04:19:18.647Z,1.70
2019-01-15T04:22:22.060Z,1.70
2019-01-15T04:25:25.495Z,1.70
2019-01-15T04:28:28.930Z,1.70
2019-01-15T04:31:32.360Z,1.70
2019-01-15T04:34:35.781Z,1.80
2019-01-15T04:37:39.330Z,1.80
2019-01-15T04:40:42.749Z,1.80
2019-01-15T04:43:46.272Z,1.80
2019-01-15T04:46:49.692Z,1.80
2019-01-15T04:49:53.125Z,1.80
2019-01-15T04:52:58.172Z,1.80
2019-01-15T04:56:01.635Z,1.90
2019-01-15T04:59:05.126Z,1.90
2019-01-15T05:02:08.556Z,1.90
2019-01-15T05:05:12.244Z,1.90
2019-01-15T05:08:15.676Z,1.90
2019-01-15T05:11:19.158Z,1.90
2019-01-15T05:14:22.603Z,1.90
2019-01-15T05:17:26.047Z,1.90
2019-01-15T05:20:29.480Z,1.90
2019-01-15T05:23:32.916Z,1.80
2019-01-15T05:26:36.330Z,1.80
2019-01-15T05:29:39.800Z,1.80
2019-01-15T05:32:43.234Z,1.80
2019-01-15T05:35:46.663Z,1.80
2019-01-15T05:38:50.076Z,1.80
2019-01-15T05:41:53.539Z,1.70
2019-01-15T05:44:58.435Z,1.70
2019-01-15T05:48:03.505Z,1.70
2019-01-15T05:51:08.576Z,1.70
2019-01-15T05:54:12.006Z,1.70
2019-01-15T05:57:15.448Z,1.80
2019-01-15T06:00:19.016Z,1.80
2019-01-15T06:03:22.484Z,1.80
2019-01-15T06:06:25.877Z,1.80
2019-01-15T06:09:29.322Z,1.80
2019-01-15T06:12:32.733Z,1.80
2019-01-15T06:15:36.188Z,1.80
2019-01-15T06:18:39.632Z,1.90
2019-01-15T06:21:43.036Z,1.90
2019-01-15T06:24:46.474Z,2.00
2019-01-15T06:27:49.912Z,1.90
2019-01-15T06:30:53.368Z,2.00
2019-01-15T06:33:56.769Z,2.00
2019-01-15T06:37:00.233Z,2.00
2019-01-15T06:40:06.785Z,2.10
2019-01-15T06:43:10.221Z,2.10
2019-01-15T06:46:13.662Z,2.10
2019-01-15T06:49:17.099Z,2.10
2019-01-15T06:52:20.538Z,2.10
2019-01-15T06:55:24.658Z,2.00
2019-01-15T06:58:28.094Z,2.00
2019-01-15T07:01:31.528Z,2.10
2019-01-15T07:04:34.988Z,2.10
2019-01-15T07:07:38.418Z,2.10
2019-01-15T07:10:41.860Z,2.10
2019-01-15T07:13:45.284Z,2.20
2019-01-15T07:16:48.699Z,2.30
2019-01-15T07:19:52.137Z,2.20
2019-01-15T07:22:55.590Z,2.20
2019-01-15T07:25:59.103Z,2.30
2019-01-15T07:29:02.705Z,2.30
2019-01-15T07:32:06.128Z,2.40
2019-01-15T07:35:09.568Z,2.30
2019-01-15T07:38:13.069Z,2.30
2019-01-15T07:41:16.504Z,2.30
2019-01-15T07:44:19.940Z,2.40
2019-01-15T07:47:23.453Z,2.40
2019-01-15T07:50:26.872Z,2.40
2019-01-15T07:53:30.303Z,2.50
2019-01-15T07:56:33.736Z,2.50
2019-01-15T07:59:37.166Z,2.50
2019-01-15T08:02:40.597Z,2.50
2019-01-15T08:05:44.037Z,2.50
2019-01-15T08:08:47.440Z,2.50
2019-01-15T08:11:50.872Z,2.50
2019-01-15T08:14:54.280Z,2.50
2019-01-15T08:17:57.732Z,2.50
2019-01-15T08:21:01.221Z,2.60
2019-01-15T08:24:04.745Z,2.50
2019-01-15T08:27:08.169Z,2.60
2019-01-15T08:30:20.521Z,2.60
2019-01-15T08:33:24.017Z,2.60
2019-01-15T08:36:28.637Z,2.60
2019-01-15T08:39:32.177Z,2.70
2019-01-15T08:42:35.624Z,2.70
2019-01-15T08:45:39.073Z,2.70
2019-01-15T08:48:42.795Z,2.80
2019-01-15T08:51:46.697Z,2.80
2019-01-15T08:54:50.135Z,2.80
2019-01-15T08:57:53.579Z,2.80
2019-01-15T09:00:57.012Z,2.80
2019-01-15T09:04:00.458Z,2.80
2019-01-15T09:07:03.955Z,2.80
2019-01-15T09:10:10.504Z,2.80
2019-01-15T09:13:13.956Z,2.80
2019-01-15T09:16:17.366Z,2.80
2019-01-15T09:19:20.820Z,2.80
2019-01-15T09:22:25.192Z,2.80
2019-01-15T09:25:28.632Z,2.90
2019-01-15T09:28:32.049Z,2.80
2019-01-15T09:31:35.470Z,2.80
2019-01-15T09:34:38.888Z,2.80
2019-01-15T09:37:42.792Z,2.80
2019-01-15T09:40:46.256Z,2.70
2019-01-15T09:43:49.668Z,2.70
2019-01-15T09:46:53.129Z,2.60
2019-01-15T09:49:56.631Z,2.70
2019-01-15T09:53:00.318Z,2.70
2019-01-15T09:56:03.751Z,2.70
2019-01-15T09:59:07.213Z,2.70
2019-01-15T10:02:10.620Z,2.60
2019-01-15T10:05:14.067Z,2.60
2019-01-15T10:08:17.484Z,2.50
2019-01-15T10:11:20.916Z,2.50
2019-01-15T10:14:24.347Z,2.50
2019-01-15T10:17:27.801Z,2.50
2019-01-15T10:20:31.282Z,2.50
2019-01-15T10:23:34.712Z,2.60
2019-01-15T10:26:38.140Z,2.60
2019-01-15T10:29:41.646Z,2.60
2019-01-15T10:32:48.217Z,2.60
2019-01-15T10:35:54.648Z,2.60
2019-01-15T10:38:58.053Z,2.60
2019-01-15T10:42:01.515Z,2.60
2019-01-15T10:45:07.871Z,2.70
2019-01-15T10:48:11.302Z,2.70
2019-01-15T10:51:14.751Z,2.70
2019-01-15T10:54:18.212Z,2.70
2019-01-15T10:57:21.660Z,2.70
2019-01-15T11:00:25.092Z,2.80
2019-01-15T11:03:28.536Z,2.80
2019-01-15T11:06:31.975Z,2.90
2019-01-15T11:09:35.428Z,2.90
2019-01-15T11:12:38.857Z,3.00
2019-01-15T11:15:43.428Z,3.10
2019-01-15T11:18:47.118Z,3.10
2019-01-15T11:21:50.548Z,3.10
2019-01-15T11:24:54.060Z,3.20
2019-01-15T11:27:57.485Z,3.20
2019-01-15T11:31:00.922Z,3.20
2019-01-15T11:34:04.419Z,3.30
2019-01-15T11:37:07.868Z,3.40
2019-01-15T11:40:16.629Z,3.30
2019-01-15T11:43:20.112Z,3.40
2019-01-15T11:46:23.561Z,3.50
2019-01-15T11:49:27.028Z,3.50
2019-01-15T11:52:30.466Z,3.50
2019-01-15T11:55:33.910Z,3.60
2019-01-15T11:58:37.400Z,3.70
2019-01-15T12:01:41.800Z,3.80
2019-01-15T12:04:46.904Z,3.90
2019-01-15T12:08:08.388Z,4.00
2019-01-15T12:11:16.424Z,4.00
2019-01-15T12:14:37.528Z,4.10
2019-01-15T12:17:42.601Z,4.10
2019-01-15T12:20:47.705Z,4.10
2019-01-15T12:23:55.696Z,4.10
2019-01-15T12:27:00.743Z,4.00
2019-01-15T12:30:08.904Z,4.00
2019-01-15T12:33:32.141Z,4.00
2019-01-15T12:36:42.806Z,4.00
2019-01-15T12:39:56.448Z,4.00
2019-01-15T12:43:04.501Z,4.00
2019-01-15T12:46:09.641Z,4.00
2019-01-15T12:49:20.652Z,4.00
2019-01-15T12:52:28.188Z,4.10
2019-01-15T12:55:49.734Z,4.10
2019-01-15T12:58:57.810Z,4.00
2019-01-15T13:02:02.889Z,4.00
2019-01-15T13:05:21.016Z,4.00
2019-01-15T13:08:26.106Z,4.00
2019-01-15T13:11:31.180Z,4.00
2019-01-15T13:14:42.004Z,4.10
2019-01-15T13:17:47.048Z,4.10
2019-01-15T13:20:52.162Z,4.10
2019-01-15T13:23:57.231Z,4.20
2019-01-15T13:27:05.049Z,4.20
2019-01-15T13:30:31.539Z,4.20
2019-01-15T13:33:39.566Z,4.20
2019-01-15T13:36:44.632Z,4.30
2019-01-15T13:39:55.863Z,4.30
2019-01-15T13:43:00.944Z,4.30
2019-01-15T13:46:09.148Z,4.30
2019-01-15T13:49:17.280Z,4.30
2019-01-15T13:52:22.429Z,4.30
2019-01-15T13:55:43.867Z,4.30
2019-01-15T13:59:06.936Z,4.30
2019-01-15T14:02:23.761Z,4.30
2019-01-15T14:05:43.725Z,4.30
2019-01-15T14:08:57.551Z,4.30
2019-01-15T14:12:05.549Z,4.40
2019-01-15T14:15:10.707Z,4.40
2019-01-15T14:18:15.783Z,4.40
2019-01-15T14:21:37.104Z,4.40
2019-01-15T14:24:58.476Z,4.50
2019-01-15T14:28:01.039Z,4.50
2019-01-15T14:31:06.220Z,4.50
2019-01-15T14:34:27.566Z,4.60
2019-01-15T14:37:44.004Z,4.60
2019-01-15T14:40:51.777Z,4.70
2019-01-15T14:44:02.540Z,4.60
2019-01-15T14:47:23.651Z,4.70
2019-01-15T14:50:31.627Z,4.70
2019-01-15T14:53:39.657Z,4.70
2019-01-15T14:56:44.713Z,4.70
2019-01-15T14:59:49.794Z,4.70
2019-01-15T15:03:13.101Z,4.70
2019-01-15T15:06:26.903Z,4.70
2019-01-15T15:09:34.660Z,4.70
2019-01-15T15:12:45.612Z,4.70
2019-01-15T15:15:53.608Z,4.80
2019-01-15T15:18:58.716Z,4.80
2019-01-15T15:22:19.820Z,4.90
2019-01-15T15:25:24.896Z,4.90
2019-01-15T15:28:32.643Z,4.90
2019-01-15T15:31:49.453Z,4.90
2019-01-15T15:34:58.431Z,4.90
2019-01-15T15:38:19.623Z,5.00
2019-01-15T15:41:30.704Z,5.00
2019-01-15T15:44:41.237Z,5.00
2019-01-15T15:47:46.281Z,5.00
2019-01-15T15:50:54.084Z,5.00
2019-01-15T15:54:13.946Z,5.00
2019-01-15T15:57:18.989Z,5.00
2019-01-15T16:00:40.113Z,5.10
2019-01-15T16:04:00.068Z,5.10
2019-01-15T16:07:05.201Z,5.10
2019-01-15T16:10:21.816Z,5.10
2019-01-15T16:13:45.015Z,5.20
2019-01-15T16:16:52.848Z,5.20
2019-01-15T16:20:00.685Z,5.20
2019-01-15T16:23:05.825Z,5.10
2019-01-15T16:26:10.921Z,5.10
2019-01-15T16:29:18.619Z,5.10
2019-01-15T16:32:23.725Z,5.10
2019-01-15T16:35:37.552Z,5.10
2019-01-15T16:38:58.856Z,5.10
2019-01-15T16:42:03.940Z,5.10
2019-01-15T16:45:17.473Z,5.10
2019-01-15T16:48:22.550Z,5.10
2019-01-15T16:51:30.398Z,5.20
2019-01-15T16:54:35.504Z,5.20
2019-01-15T16:57:43.495Z,5.20
2019-01-15T17:00:54.380Z,5.10
2019-01-15T17:03:59.453Z,5.20
2019-01-15T17:07:19.333Z,5.20
2019-01-15T17:10:33.161Z,5.20
2019-01-15T17:13:38.213Z,5.20
2019-01-15T17:16:59.037Z,5.10
2019-01-15T17:20:13.225Z,5.20
2019-01-15T17:23:27.265Z,5.20
2019-01-15T17:26:39.357Z,5.20
2019-01-15T17:29:52.889Z,5.20
2019-01-15T17:33:13.968Z,5.20
2019-01-15T17:36:21.428Z,5.20
2019-01-15T17:39:35.277Z,5.20
2019-01-15T17:42:58.465Z,5.10
2019-01-15T17:46:19.348Z,5.20
2019-01-15T17:49:33.006Z,5.20
2019-01-15T17:52:52.860Z,5.10
2019-01-15T17:56:10.040Z,5.10
2019-01-15T17:59:15.108Z,5.10
2019-01-15T18:02:25.925Z,5.10
2019-01-15T18:05:47.258Z,5.10
2019-01-15T18:08:52.384Z,5.10
2019-01-15T18:12:13.809Z,5.10
2019-01-15T18:15:30.936Z,5.10
2019-01-15T18:18:48.081Z,5.10
2019-01-15T18:21:53.296Z,5.10
2019-01-15T18:25:04.215Z,5.20
2019-01-15T18:28:11.731Z,5.10
2019-01-15T18:31:34.605Z,5.20
2019-01-15T18:34:57.559Z,5.20
2019-01-15T18:38:05.201Z,5.20
2019-01-15T18:41:13.161Z,5.20
2019-01-15T18:44:33.350Z,5.20
2019-01-15T18:47:38.394Z,5.20
2019-01-15T18:50:52.352Z,5.20
2019-01-15T18:54:03.377Z,5.20
2019-01-15T18:57:20.491Z,5.20
2019-01-15T19:00:37.537Z,5.20
2019-01-15T19:03:42.625Z,5.20
2019-01-15T19:06:53.396Z,5.30
2019-01-15T19:10:13.323Z,5.30
2019-01-15T19:13:24.094Z,5.30
2019-01-15T19:16:34.890Z,5.30
2019-01-15T19:19:46.025Z,5.30
2019-01-15T19:22:53.754Z,5.30
2019-01-15T19:26:01.746Z,5.30
2019-01-15T19:29:06.900Z,5.30
2019-01-15T19:32:28.237Z,5.30
2019-01-15T19:35:39.400Z,5.40
2019-01-15T19:38:50.152Z,5.40
2019-01-15T19:42:13.036Z,5.40
2019-01-15T19:45:23.661Z,5.40
2019-01-15T19:48:34.504Z,5.30
2019-01-15T19:51:39.594Z,5.40
2019-01-15T19:54:44.645Z,5.40
2019-01-15T19:57:58.553Z,5.40
2019-01-15T20:01:06.648Z,5.40
2019-01-15T20:04:29.684Z,5.40
2019-01-15T20:07:40.642Z,5.40
2019-01-15T20:10:54.442Z,5.40
2019-01-15T20:14:02.227Z,5.40
2019-01-15T20:17:18.567Z,5.40
2019-01-15T20:20:25.573Z,5.40
2019-01-15T20:23:30.667Z,5.40
2019-01-15T20:26:35.764Z,5.40
2019-01-15T20:29:43.497Z,5.40
2019-01-15T20:32:48.851Z,5.40
2019-01-15T20:35:59.753Z,5.40
2019-01-15T20:39:17.031Z,5.40
2019-01-15T20:42:22.088Z,5.40
2019-01-15T20:45:35.823Z,5.40
2019-01-15T20:48:40.997Z,5.40
2019-01-15T20:52:04.218Z,5.40
2019-01-15T20:55:26.034Z,5.50
2019-01-15T20:58:31.108Z,5.50
2019-01-15T21:01:36.166Z,5.40
2019-01-15T21:04:41.261Z,5.40
2019-01-15T21:08:02.681Z,5.40
2019-01-15T21:11:07.741Z,5.40
2019-01-15T21:14:24.979Z,5.40
2019-01-15T21:17:33.115Z,5.40
2019-01-15T21:20:36.838Z,5.40
2019-01-15T21:23:41.918Z,5.30
2019-01-15T21:26:55.717Z,5.40
2019-01-15T21:30:15.887Z,5.40
2019-01-15T21:33:29.931Z,5.40
2019-01-15T21:36:44.033Z,5.40
2019-01-15T21:40:06.958Z,5.40
2019-01-15T21:43:12.071Z,5.40
2019-01-15T21:46:17.133Z,5.40
2019-01-15T21:49:25.216Z,5.40
2019-01-15T21:52:33.324Z,5.40
2019-01-15T21:55:47.198Z,5.50
2019-01-15T21:58:52.277Z,5.50
2019-01-15T22:02:06.085Z,5.50
2019-01-15T22:05:25.822Z,5.50
2019-01-15T22:08:33.813Z,5.50
2019-01-15T22:11:57.949Z,5.50
2019-01-15T22:15:03.037Z,5.40
2019-01-15T22:18:10.789Z,5.50
2019-01-15T22:21:24.540Z,5.50
2019-01-15T22:24:45.872Z,5.50
2019-01-15T22:28:07.172Z,5.60
2019-01-15T22:31:21.278Z,5.60
2019-01-15T22:34:26.337Z,5.50
2019-01-15T22:37:47.705Z,5.60
2019-01-15T22:40:55.707Z,5.50
2019-01-15T22:44:03.441Z,5.50
2019-01-15T22:47:20.335Z,5.50
2019-01-15T22:50:31.304Z,5.50
2019-01-15T22:53:51.194Z,5.50
2019-01-15T22:56:56.305Z,5.60
2019-01-15T23:00:04.061Z,5.50
2019-01-15T23:03:09.133Z,5.50
2019-01-15T23:06:14.269Z,5.50
2019-01-15T23:09:34.168Z,5.50
2019-01-15T23:12:41.910Z,5.50
2019-01-15T23:15:59.140Z,5.60
2019-01-15T23:19:20.473Z,5.60
2019-01-15T23:22:31.248Z,5.60
2019-01-15T23:25:45.252Z,5.60
2019-01-15T23:28:52.977Z,5.60
2019-01-15T23:31:58.043Z,5.50
2019-01-15T23:35:21.245Z,5.50
2019-01-15T23:38:26.340Z,5.50
2019-01-15T23:41:31.585Z,5.50
2019-01-15T23:44:52.673Z,5.50
2019-01-15T23:47:57.750Z,5.50
2019-01-15T23:51:05.531Z,5.50
2019-01-15T23:54:13.577Z,5.40
2019-01-15T23:57:21.306Z,5.40
